»·PEaware :: DCM205 KELP-KABQ

DCM205 :: KELP-KABQ

FLIGHT INFORMATION

Flight Status: Arrived
Operator:
DotCom
More flights by this operator :: More flights under this callsign
Pilot: Chris S. (2433)
Aircraft: AIRBUS A320
(A320)
More flights by this aircraft type
Origin: KELP El Paso Intl
United States
Destination: KABQ Albuquerque Intl Sunport
United States
More flights between these airports :: More routes between these airports
Route: ATKNN5 ATKNN RUTER TCS J13 ABQ
File this flight plan on PilotEdge
Remarks:
Altitude:
(Current/Filed)
26,000ft
Speed:
(Current/Filed)
450kts
Departed: 27-Mar-20 04:55 PM
Arrived: 27-Mar-20 05:31 PM
Distance/Time
Traveled:
195nm/0:36
Distance/Time
To Go:
Arrived

Flight Plot

Page will automatically refresh every two minutes.

Flight plan parsing failed; only flown route is shown


Map Options




Map Legend


Flown Route
Filed Route
Departure Airport
Arrival Airport
Navaid (VOR, NDB)
Fix

Horizontal Profiles

Position Reports

Time Latitude Longitude Heading Altitude Ground
Speed
27-Mar-20 16:15 31.800220 -106.394212 179 3972ft 0kts
27-Mar-20 16:16 31.800220 -106.394212 179 3972ft 0kts
27-Mar-20 16:17 31.800220 -106.394212 179 3972ft 0kts
27-Mar-20 16:18 31.800220 -106.394212 179 3972ft 0kts
27-Mar-20 16:19 31.800220 -106.394212 179 3972ft 0kts
27-Mar-20 16:20 31.800220 -106.394212 179 3972ft 0kts
27-Mar-20 16:21 31.800220 -106.394212 179 3972ft 0kts
27-Mar-20 16:21 31.800220 -106.394212 180 3972ft 0kts
27-Mar-20 16:23 31.800219 -106.394212 180 3972ft 0kts
27-Mar-20 16:24 31.800181 -106.394242 229 3972ft 0kts
27-Mar-20 16:24 31.800292 -106.394318 3 3972ft 0kts
27-Mar-20 16:25 31.800292 -106.394318 3 3972ft 0kts
27-Mar-20 16:27 31.800292 -106.394318 3 3972ft 0kts
27-Mar-20 16:27 31.800293 -106.394318 3 3972ft 0kts
27-Mar-20 16:28 31.800293 -106.394317 3 3972ft 0kts
27-Mar-20 16:29 31.800294 -106.394317 3 3972ft 0kts
27-Mar-20 16:30 31.800294 -106.394317 3 3972ft 0kts
27-Mar-20 16:31 31.800294 -106.394317 3 3972ft 0kts
27-Mar-20 16:32 31.800295 -106.394317 3 3972ft 0kts
27-Mar-20 16:33 31.800295 -106.394317 3 3972ft 0kts
27-Mar-20 16:34 31.800295 -106.394317 3 3972ft 0kts
27-Mar-20 16:35 31.800296 -106.394317 3 3972ft 0kts
27-Mar-20 16:36 31.800296 -106.394317 3 3972ft 0kts
27-Mar-20 16:37 31.800296 -106.394317 3 3972ft 0kts
27-Mar-20 16:38 31.800297 -106.394317 3 3972ft 0kts
27-Mar-20 16:39 31.800297 -106.394317 3 3972ft 0kts
27-Mar-20 16:40 31.800298 -106.394317 3 3972ft 0kts
27-Mar-20 16:41 31.800298 -106.394317 3 3972ft 0kts
27-Mar-20 16:42 31.800298 -106.394317 3 3972ft 0kts
27-Mar-20 16:43 31.800299 -106.394317 3 3972ft 0kts
27-Mar-20 16:44 31.800299 -106.394317 3 3972ft 0kts
27-Mar-20 16:45 31.800299 -106.394317 3 3972ft 0kts
27-Mar-20 16:46 31.800300 -106.394317 3 3972ft 0kts
27-Mar-20 16:47 31.801178 -106.393018 96 3972ft 12kts
27-Mar-20 16:48 31.800214 -106.389111 95 3972ft 12kts
27-Mar-20 16:49 31.799982 -106.383198 93 3972ft 25kts
27-Mar-20 16:50 31.799654 -106.374869 93 3972ft 26kts
27-Mar-20 16:51 31.799333 -106.366121 90 3972ft 27kts
27-Mar-20 16:52 31.800043 -106.363787 359 3972ft 0kts
27-Mar-20 16:53 31.800047 -106.363787 359 3972ft 0kts
27-Mar-20 16:54 31.800938 -106.367081 272 3972ft 60kts
27-Mar-20 16:55 31.802107 -106.413526 261 4677ft 200kts
27-Mar-20 16:56 31.768701 -106.477884 245 6773ft 247kts
27-Mar-20 16:57 31.788501 -106.553670 298 9749ft 270kts
27-Mar-20 16:58 31.853069 -106.615935 324 11343ft 349kts
27-Mar-20 16:59 31.943223 -106.673005 321 13329ft 376kts
27-Mar-20 17:00 32.035741 -106.734429 320 15605ft 388kts
27-Mar-20 17:01 32.131383 -106.797580 318 17578ft 399kts
27-Mar-20 17:02 32.229621 -106.862708 318 19341ft 411kts
27-Mar-20 17:03 32.336640 -106.920010 331 20895ft 443kts
27-Mar-20 17:04 32.456510 -106.963596 329 22302ft 453kts
27-Mar-20 17:05 32.578228 -107.010378 330 23551ft 466kts
27-Mar-20 17:06 32.701734 -107.057310 329 25129ft 466kts
27-Mar-20 17:07 32.824198 -107.103926 329 25883ft 457kts
27-Mar-20 17:08 32.945079 -107.150470 329 25914ft 456kts
27-Mar-20 17:09 33.065774 -107.196805 329 25928ft 455kts
27-Mar-20 17:10 33.199948 -107.194702 3 25928ft 511kts
27-Mar-20 17:11 33.339359 -107.165128 359 25920ft 508kts
27-Mar-20 17:12 33.476400 -107.137574 1 25918ft 492kts
27-Mar-20 17:13 33.611368 -107.110605 0 25907ft 491kts
27-Mar-20 17:14 33.746404 -107.083189 0 25894ft 488kts
27-Mar-20 17:15 33.876307 -107.056718 359 24490ft 466kts
27-Mar-20 17:16 34.002995 -107.031006 0 22996ft 453kts
27-Mar-20 17:17 34.124646 -107.006186 1 21510ft 436kts
27-Mar-20 17:18 34.242255 -106.982101 1 20021ft 420kts
27-Mar-20 17:19 34.355469 -106.958903 2 18529ft 405kts
27-Mar-20 17:20 34.461809 -106.910416 18 16862ft 406kts
27-Mar-20 17:21 34.563685 -106.855566 24 15168ft 398kts
27-Mar-20 17:22 34.657627 -106.786800 28 13480ft 390kts
27-Mar-20 17:23 34.747522 -106.719053 28 11812ft 361kts
27-Mar-20 17:24 34.831108 -106.655423 30 9975ft 339kts
27-Mar-20 17:25 34.903395 -106.594503 30 8565ft 305kts
27-Mar-20 17:26 34.971480 -106.540281 26 7043ft 266kts
27-Mar-20 17:27 35.027946 -106.508117 352 6930ft 167kts
27-Mar-20 17:28 35.043892 -106.543270 272 5994ft 135kts
27-Mar-20 17:29 35.044130 -106.586060 271 5369ft 58kts
27-Mar-20 17:30 35.044930 -106.591783 58 5369ft 14kts
27-Mar-20 17:31 35.045837 -106.591898 270 5369ft 18kts
27-Mar-20 17:32 35.045725 -106.602291 270 5369ft 33kts
27-Mar-20 17:33 35.045755 -106.612058 271 5369ft 22kts
27-Mar-20 17:34 35.046879 -106.616411 269 5369ft 0kts
27-Mar-20 17:35 35.046879 -106.616411 269 5369ft 0kts
27-Mar-20 17:36 35.046879 -106.616411 269 5369ft 0kts
27-Mar-20 17:37 35.046879 -106.616411 269 5369ft 0kts
27-Mar-20 17:38 35.046879 -106.616411 269 5369ft 0kts
27-Mar-20 17:39 35.046879 -106.616411 269 5369ft 0kts

Navigation Log

Ident Type
Flight plan parsing failed, navigation log unavailable